sensor_id;sensor_type;location;lat;lon;timestamp;P1;durP1;ratioP1;P2;durP2;ratioP2
42912;SDS011;50720;54.324;18.558;2022-12-10T00:01:48;39.17;;;19.05;;
42912;SDS011;50720;54.324;18.558;2022-12-10T00:04:20;34.78;;;16.35;;
42912;SDS011;50720;54.324;18.558;2022-12-10T00:06:49;35.47;;;16.25;;
42912;SDS011;50720;54.324;18.558;2022-12-10T00:09:20;32.63;;;16.63;;
42912;SDS011;50720;54.324;18.558;2022-12-10T00:11:50;33.65;;;16.85;;
42912;SDS011;50720;54.324;18.558;2022-12-10T00:14:20;35.58;;;17.23;;
42912;SDS011;50720;54.324;18.558;2022-12-10T00:16:49;36.88;;;18.85;;
42912;SDS011;50720;54.324;18.558;2022-12-10T00:19:20;35.37;;;16.93;;
42912;SDS011;50720;54.324;18.558;2022-12-10T00:21:49;32.50;;;16.85;;
42912;SDS011;50720;54.324;18.558;2022-12-10T00:24:19;35.83;;;16.70;;
42912;SDS011;50720;54.324;18.558;2022-12-10T00:26:49;37.90;;;18.63;;
42912;SDS011;50720;54.324;18.558;2022-12-10T00:29:20;39.13;;;17.33;;
42912;SDS011;50720;54.324;18.558;2022-12-10T00:31:50;35.38;;;16.92;;
42912;SDS011;50720;54.324;18.558;2022-12-10T00:34:19;37.90;;;19.23;;
42912;SDS011;50720;54.324;18.558;2022-12-10T00:36:49;32.25;;;16.33;;
42912;SDS011;50720;54.324;18.558;2022-12-10T00:39:19;32.92;;;15.88;;
42912;SDS011;50720;54.324;18.558;2022-12-10T00:41:49;38.47;;;17.77;;
42912;SDS011;50720;54.324;18.558;2022-12-10T00:44:20;40.97;;;18.17;;
42912;SDS011;50720;54.324;18.558;2022-12-10T00:46:50;41.88;;;19.85;;
42912;SDS011;50720;54.324;18.558;2022-12-10T00:49:20;41.30;;;17.65;;
42912;SDS011;50720;54.324;18.558;2022-12-10T00:51:51;39.13;;;16.90;;
42912;SDS011;50720;54.324;18.558;2022-12-10T00:54:21;34.28;;;16.25;;
42912;SDS011;50720;54.324;18.558;2022-12-10T00:56:52;32.28;;;16.45;;
42912;SDS011;50720;54.324;18.558;2022-12-10T01:01:50;33.05;;;13.63;;
42912;SDS011;50720;54.324;18.558;2022-12-10T01:04:21;29.15;;;16.05;;
42912;SDS011;50720;54.324;18.558;2022-12-10T01:06:52;30.45;;;15.93;;
42912;SDS011;50720;54.324;18.558;2022-12-10T01:09:22;31.75;;;15.48;;
42912;SDS011;50720;54.324;18.558;2022-12-10T01:11:56;29.70;;;15.27;;
42912;SDS011;50720;54.324;18.558;2022-12-10T01:14:32;27.48;;;13.35;;
42912;SDS011;50720;54.324;18.558;2022-12-10T01:17:03;27.45;;;13.45;;
42912;SDS011;50720;54.324;18.558;2022-12-10T01:19:34;27.45;;;12.10;;
42912;SDS011;50720;54.324;18.558;2022-12-10T01:22:03;28.48;;;11.48;;
42912;SDS011;50720;54.324;18.558;2022-12-10T01:24:33;24.13;;;12.33;;
42912;SDS011;50720;54.324;18.558;2022-12-10T01:27:04;25.58;;;12.15;;
42912;SDS011;50720;54.324;18.558;2022-12-10T01:29:34;29.10;;;14.05;;
42912;SDS011;50720;54.324;18.558;2022-12-10T01:32:03;17.83;;;10.23;;
42912;SDS011;50720;54.324;18.558;2022-12-10T01:34:33;19.85;;;9.15;;
42912;SDS011;50720;54.324;18.558;2022-12-10T01:37:03;20.27;;;9.68;;
42912;SDS011;50720;54.324;18.558;2022-12-10T01:39:32;24.17;;;10.05;;
42912;SDS011;50720;54.324;18.558;2022-12-10T01:42:02;20.67;;;9.25;;
42912;SDS011;50720;54.324;18.558;2022-12-10T01:47:37;17.58;;;9.43;;
42912;SDS011;50720;54.324;18.558;2022-12-10T01:50:07;18.38;;;9.52;;
42912;SDS011;50720;54.324;18.558;2022-12-10T01:52:37;20.70;;;11.00;;
42912;SDS011;50720;54.324;18.558;2022-12-10T01:55:34;21.00;;;10.82;;
42912;SDS011;50720;54.324;18.558;2022-12-10T01:58:13;24.02;;;11.13;;
42912;SDS011;50720;54.324;18.558;2022-12-10T02:00:50;20.92;;;10.25;;
42912;SDS011;50720;54.324;18.558;2022-12-10T02:06:05;24.60;;;12.50;;
42912;SDS011;50720;54.324;18.558;2022-12-10T02:08:41;23.08;;;12.95;;
42912;SDS011;50720;54.324;18.558;2022-12-10T02:11:20;23.40;;;10.85;;
42912;SDS011;50720;54.324;18.558;2022-12-10T02:13:55;21.05;;;11.27;;
42912;SDS011;50720;54.324;18.558;2022-12-10T02:16:31;26.23;;;12.48;;
42912;SDS011;50720;54.324;18.558;2022-12-10T02:19:03;29.25;;;12.30;;
42912;SDS011;50720;54.324;18.558;2022-12-10T02:21:42;23.90;;;10.93;;
42912;SDS011;50720;54.324;18.558;2022-12-10T02:24:15;22.40;;;11.57;;
42912;SDS011;50720;54.324;18.558;2022-12-10T02:26:49;23.92;;;11.23;;
42912;SDS011;50720;54.324;18.558;2022-12-10T02:29:24;25.52;;;10.95;;
42912;SDS011;50720;54.324;18.558;2022-12-10T02:31:57;22.70;;;11.73;;
42912;SDS011;50720;54.324;18.558;2022-12-10T02:34:31;23.90;;;11.98;;
42912;SDS011;50720;54.324;18.558;2022-12-10T02:37:05;23.50;;;12.07;;
42912;SDS011;50720;54.324;18.558;2022-12-10T02:39:40;22.02;;;11.45;;
42912;SDS011;50720;54.324;18.558;2022-12-10T02:42:14;22.15;;;11.55;;
42912;SDS011;50720;54.324;18.558;2022-12-10T02:44:46;25.15;;;11.88;;
42912;SDS011;50720;54.324;18.558;2022-12-10T02:47:17;23.90;;;12.50;;
42912;SDS011;50720;54.324;18.558;2022-12-10T02:49:48;21.38;;;11.57;;
42912;SDS011;50720;54.324;18.558;2022-12-10T02:52:22;18.17;;;9.85;;
42912;SDS011;50720;54.324;18.558;2022-12-10T02:54:53;21.92;;;10.65;;
42912;SDS011;50720;54.324;18.558;2022-12-10T02:57:25;26.55;;;11.60;;
42912;SDS011;50720;54.324;18.558;2022-12-10T03:00:04;28.13;;;12.25;;
42912;SDS011;50720;54.324;18.558;2022-12-10T03:02:43;29.55;;;13.70;;
42912;SDS011;50720;54.324;18.558;2022-12-10T03:05:27;29.17;;;13.23;;
42912;SDS011;50720;54.324;18.558;2022-12-10T03:08:05;33.53;;;14.57;;
42912;SDS011;50720;54.324;18.558;2022-12-10T03:10:42;34.00;;;14.60;;
42912;SDS011;50720;54.324;18.558;2022-12-10T03:13:20;35.78;;;15.98;;
42912;SDS011;50720;54.324;18.558;2022-12-10T03:15:57;26.75;;;14.38;;
42912;SDS011;50720;54.324;18.558;2022-12-10T03:18:29;30.25;;;15.63;;
42912;SDS011;50720;54.324;18.558;2022-12-10T03:21:02;30.38;;;15.40;;
42912;SDS011;50720;54.324;18.558;2022-12-10T03:23:36;32.85;;;15.90;;
42912;SDS011;50720;54.324;18.558;2022-12-10T03:26:08;34.40;;;16.40;;
42912;SDS011;50720;54.324;18.558;2022-12-10T03:31:13;37.00;;;16.17;;
42912;SDS011;50720;54.324;18.558;2022-12-10T03:33:44;31.73;;;15.18;;
42912;SDS011;50720;54.324;18.558;2022-12-10T03:36:15;39.53;;;18.27;;
42912;SDS011;50720;54.324;18.558;2022-12-10T03:38:47;33.70;;;16.63;;
42912;SDS011;50720;54.324;18.558;2022-12-10T03:41:17;32.50;;;16.45;;
42912;SDS011;50720;54.324;18.558;2022-12-10T03:43:51;33.28;;;17.77;;
42912;SDS011;50720;54.324;18.558;2022-12-10T03:46:23;37.03;;;17.48;;
42912;SDS011;50720;54.324;18.558;2022-12-10T03:48:54;32.72;;;17.02;;
42912;SDS011;50720;54.324;18.558;2022-12-10T03:51:25;30.25;;;14.38;;
42912;SDS011;50720;54.324;18.558;2022-12-10T03:53:55;30.10;;;15.10;;
42912;SDS011;50720;54.324;18.558;2022-12-10T03:56:25;30.27;;;15.32;;
42912;SDS011;50720;54.324;18.558;2022-12-10T03:58:55;26.33;;;14.13;;
42912;SDS011;50720;54.324;18.558;2022-12-10T04:01:25;27.92;;;13.63;;
42912;SDS011;50720;54.324;18.558;2022-12-10T04:03:55;23.92;;;12.15;;
42912;SDS011;50720;54.324;18.558;2022-12-10T04:06:25;25.35;;;11.38;;
42912;SDS011;50720;54.324;18.558;2022-12-10T04:08:55;23.98;;;11.85;;
42912;SDS011;50720;54.324;18.558;2022-12-10T04:11:25;23.83;;;12.05;;
42912;SDS011;50720;54.324;18.558;2022-12-10T04:13:55;19.03;;;9.87;;
42912;SDS011;50720;54.324;18.558;2022-12-10T04:16:42;17.63;;;9.32;;
42912;SDS011;50720;54.324;18.558;2022-12-10T04:19:13;15.90;;;9.77;;
42912;SDS011;50720;54.324;18.558;2022-12-10T04:24:31;24.55;;;8.70;;
42912;SDS011;50720;54.324;18.558;2022-12-10T04:27:20;19.58;;;9.73;;
42912;SDS011;50720;54.324;18.558;2022-12-10T04:29:51;20.75;;;9.02;;
42912;SDS011;50720;54.324;18.558;2022-12-10T04:32:23;21.60;;;9.43;;
42912;SDS011;50720;54.324;18.558;2022-12-10T04:34:54;20.83;;;10.10;;
42912;SDS011;50720;54.324;18.558;2022-12-10T04:37:24;19.30;;;9.23;;
42912;SDS011;50720;54.324;18.558;2022-12-10T04:39:54;21.52;;;10.93;;
42912;SDS011;50720;54.324;18.558;2022-12-10T04:42:23;20.73;;;10.23;;
42912;SDS011;50720;54.324;18.558;2022-12-10T04:44:54;18.87;;;9.07;;
42912;SDS011;50720;54.324;18.558;2022-12-10T04:47:24;22.77;;;11.35;;
42912;SDS011;50720;54.324;18.558;2022-12-10T04:52:23;24.67;;;11.30;;
42912;SDS011;50720;54.324;18.558;2022-12-10T04:54:53;25.00;;;11.87;;
42912;SDS011;50720;54.324;18.558;2022-12-10T04:57:22;22.90;;;10.85;;
42912;SDS011;50720;54.324;18.558;2022-12-10T04:59:52;20.98;;;9.93;;
42912;SDS011;50720;54.324;18.558;2022-12-10T05:02:22;28.85;;;11.95;;
42912;SDS011;50720;54.324;18.558;2022-12-10T05:04:53;23.45;;;11.20;;
42912;SDS011;50720;54.324;18.558;2022-12-10T05:07:22;21.70;;;10.77;;
42912;SDS011;50720;54.324;18.558;2022-12-10T05:09:52;21.88;;;11.43;;
42912;SDS011;50720;54.324;18.558;2022-12-10T05:12:21;20.25;;;10.95;;
42912;SDS011;50720;54.324;18.558;2022-12-10T05:14:52;20.27;;;10.07;;
42912;SDS011;50720;54.324;18.558;2022-12-10T05:17:21;24.98;;;11.95;;
42912;SDS011;50720;54.324;18.558;2022-12-10T05:19:51;27.00;;;12.63;;
42912;SDS011;50720;54.324;18.558;2022-12-10T05:22:21;25.75;;;12.80;;
42912;SDS011;50720;54.324;18.558;2022-12-10T05:25:09;29.48;;;12.80;;
42912;SDS011;50720;54.324;18.558;2022-12-10T05:27:38;26.05;;;11.98;;
42912;SDS011;50720;54.324;18.558;2022-12-10T05:30:08;30.45;;;13.57;;
42912;SDS011;50720;54.324;18.558;2022-12-10T05:32:38;28.05;;;12.73;;
42912;SDS011;50720;54.324;18.558;2022-12-10T05:35:10;30.08;;;12.88;;
42912;SDS011;50720;54.324;18.558;2022-12-10T05:37:39;29.02;;;13.20;;
42912;SDS011;50720;54.324;18.558;2022-12-10T05:40:09;23.23;;;11.75;;
42912;SDS011;50720;54.324;18.558;2022-12-10T05:42:39;23.80;;;13.10;;
42912;SDS011;50720;54.324;18.558;2022-12-10T05:45:09;26.90;;;13.27;;
42912;SDS011;50720;54.324;18.558;2022-12-10T05:47:38;30.70;;;14.00;;
42912;SDS011;50720;54.324;18.558;2022-12-10T05:50:10;28.20;;;13.90;;
42912;SDS011;50720;54.324;18.558;2022-12-10T05:52:39;27.98;;;12.98;;
42912;SDS011;50720;54.324;18.558;2022-12-10T05:55:09;30.73;;;14.05;;
42912;SDS011;50720;54.324;18.558;2022-12-10T05:57:38;25.10;;;12.65;;
42912;SDS011;50720;54.324;18.558;2022-12-10T06:00:09;23.50;;;12.35;;
42912;SDS011;50720;54.324;18.558;2022-12-10T06:02:39;25.73;;;12.63;;
42912;SDS011;50720;54.324;18.558;2022-12-10T06:05:10;24.58;;;12.25;;
42912;SDS011;50720;54.324;18.558;2022-12-10T06:07:40;26.50;;;11.88;;
42912;SDS011;50720;54.324;18.558;2022-12-10T06:10:09;22.48;;;11.50;;
42912;SDS011;50720;54.324;18.558;2022-12-10T06:12:39;27.85;;;12.77;;
42912;SDS011;50720;54.324;18.558;2022-12-10T06:15:09;30.30;;;13.40;;
42912;SDS011;50720;54.324;18.558;2022-12-10T06:17:39;25.30;;;13.03;;
42912;SDS011;50720;54.324;18.558;2022-12-10T06:20:11;26.80;;;12.07;;
42912;SDS011;50720;54.324;18.558;2022-12-10T06:22:40;24.02;;;12.38;;
42912;SDS011;50720;54.324;18.558;2022-12-10T06:25:10;27.88;;;14.82;;
42912;SDS011;50720;54.324;18.558;2022-12-10T06:27:41;24.53;;;11.87;;
42912;SDS011;50720;54.324;18.558;2022-12-10T06:30:11;22.40;;;11.40;;
42912;SDS011;50720;54.324;18.558;2022-12-10T06:32:41;25.65;;;13.07;;
42912;SDS011;50720;54.324;18.558;2022-12-10T06:35:13;27.42;;;11.98;;
42912;SDS011;50720;54.324;18.558;2022-12-10T06:37:43;23.45;;;10.77;;
42912;SDS011;50720;54.324;18.558;2022-12-10T06:40:12;19.60;;;10.95;;
42912;SDS011;50720;54.324;18.558;2022-12-10T06:42:42;22.52;;;11.10;;
42912;SDS011;50720;54.324;18.558;2022-12-10T06:45:12;24.87;;;12.40;;
42912;SDS011;50720;54.324;18.558;2022-12-10T06:47:41;27.25;;;11.65;;
42912;SDS011;50720;54.324;18.558;2022-12-10T06:50:13;26.67;;;12.87;;
42912;SDS011;50720;54.324;18.558;2022-12-10T06:52:42;23.25;;;11.10;;
42912;SDS011;50720;54.324;18.558;2022-12-10T06:55:19;23.10;;;11.93;;
42912;SDS011;50720;54.324;18.558;2022-12-10T06:57:50;25.13;;;12.27;;
42912;SDS011;50720;54.324;18.558;2022-12-10T07:00:20;25.33;;;12.43;;
42912;SDS011;50720;54.324;18.558;2022-12-10T07:02:50;24.52;;;12.43;;
42912;SDS011;50720;54.324;18.558;2022-12-10T07:05:21;22.85;;;11.85;;
42912;SDS011;50720;54.324;18.558;2022-12-10T07:07:50;25.33;;;13.48;;
42912;SDS011;50720;54.324;18.558;2022-12-10T07:10:20;28.58;;;12.85;;
42912;SDS011;50720;54.324;18.558;2022-12-10T07:12:50;28.67;;;12.40;;
42912;SDS011;50720;54.324;18.558;2022-12-10T07:15:20;28.67;;;14.50;;
42912;SDS011;50720;54.324;18.558;2022-12-10T07:17:50;26.05;;;12.57;;
42912;SDS011;50720;54.324;18.558;2022-12-10T07:20:22;26.13;;;12.48;;
42912;SDS011;50720;54.324;18.558;2022-12-10T07:22:51;24.63;;;11.55;;
42912;SDS011;50720;54.324;18.558;2022-12-10T07:25:21;24.45;;;12.70;;
42912;SDS011;50720;54.324;18.558;2022-12-10T07:27:50;22.63;;;11.93;;
42912;SDS011;50720;54.324;18.558;2022-12-10T07:30:24;23.55;;;13.27;;
42912;SDS011;50720;54.324;18.558;2022-12-10T07:32:53;31.33;;;15.43;;
42912;SDS011;50720;54.324;18.558;2022-12-10T07:35:24;32.63;;;15.82;;
42912;SDS011;50720;54.324;18.558;2022-12-10T07:37:54;27.92;;;12.15;;
42912;SDS011;50720;54.324;18.558;2022-12-10T07:40:23;26.60;;;13.35;;
42912;SDS011;50720;54.324;18.558;2022-12-10T07:42:53;23.85;;;13.13;;
42912;SDS011;50720;54.324;18.558;2022-12-10T07:45:22;27.30;;;13.45;;
42912;SDS011;50720;54.324;18.558;2022-12-10T07:47:52;24.38;;;12.15;;
42912;SDS011;50720;54.324;18.558;2022-12-10T07:50:21;23.80;;;14.30;;
42912;SDS011;50720;54.324;18.558;2022-12-10T07:52:52;28.88;;;14.40;;
42912;SDS011;50720;54.324;18.558;2022-12-10T07:55:22;25.45;;;12.93;;
42912;SDS011;50720;54.324;18.558;2022-12-10T07:57:51;28.10;;;13.80;;
42912;SDS011;50720;54.324;18.558;2022-12-10T08:00:21;30.75;;;14.18;;
42912;SDS011;50720;54.324;18.558;2022-12-10T08:02:51;28.00;;;13.05;;
42912;SDS011;50720;54.324;18.558;2022-12-10T08:05:21;25.23;;;12.55;;
42912;SDS011;50720;54.324;18.558;2022-12-10T08:07:50;32.38;;;14.65;;
42912;SDS011;50720;54.324;18.558;2022-12-10T08:10:30;24.98;;;13.00;;
42912;SDS011;50720;54.324;18.558;2022-12-10T08:13:02;24.20;;;13.48;;
42912;SDS011;50720;54.324;18.558;2022-12-10T08:15:32;26.80;;;13.77;;
42912;SDS011;50720;54.324;18.558;2022-12-10T08:18:02;28.92;;;14.15;;
42912;SDS011;50720;54.324;18.558;2022-12-10T08:20:32;28.95;;;14.05;;
42912;SDS011;50720;54.324;18.558;2022-12-10T08:23:02;27.20;;;14.02;;
42912;SDS011;50720;54.324;18.558;2022-12-10T08:28:06;25.65;;;13.65;;
42912;SDS011;50720;54.324;18.558;2022-12-10T08:30:36;28.10;;;15.20;;
42912;SDS011;50720;54.324;18.558;2022-12-10T08:33:05;27.67;;;14.25;;
42912;SDS011;50720;54.324;18.558;2022-12-10T08:35:36;33.10;;;16.40;;
42912;SDS011;50720;54.324;18.558;2022-12-10T08:38:07;34.55;;;18.00;;
42912;SDS011;50720;54.324;18.558;2022-12-10T08:40:38;32.90;;;16.45;;
42912;SDS011;50720;54.324;18.558;2022-12-10T08:43:08;33.53;;;15.95;;
42912;SDS011;50720;54.324;18.558;2022-12-10T08:45:38;29.92;;;14.43;;
42912;SDS011;50720;54.324;18.558;2022-12-10T08:48:07;37.38;;;15.35;;
42912;SDS011;50720;54.324;18.558;2022-12-10T08:50:38;26.15;;;15.55;;
42912;SDS011;50720;54.324;18.558;2022-12-10T08:53:09;32.40;;;15.70;;
42912;SDS011;50720;54.324;18.558;2022-12-10T08:55:39;32.58;;;15.27;;
42912;SDS011;50720;54.324;18.558;2022-12-10T08:58:14;30.70;;;16.20;;
42912;SDS011;50720;54.324;18.558;2022-12-10T09:00:44;34.13;;;16.73;;
42912;SDS011;50720;54.324;18.558;2022-12-10T09:03:14;32.38;;;15.77;;
42912;SDS011;50720;54.324;18.558;2022-12-10T09:05:44;35.45;;;17.17;;
42912;SDS011;50720;54.324;18.558;2022-12-10T09:08:16;38.23;;;18.83;;
42912;SDS011;50720;54.324;18.558;2022-12-10T09:10:45;32.97;;;18.63;;
42912;SDS011;50720;54.324;18.558;2022-12-10T09:13:15;34.60;;;15.55;;
42912;SDS011;50720;54.324;18.558;2022-12-10T09:15:49;32.22;;;16.35;;
42912;SDS011;50720;54.324;18.558;2022-12-10T09:18:19;35.58;;;17.63;;
42912;SDS011;50720;54.324;18.558;2022-12-10T09:20:49;41.55;;;16.50;;
42912;SDS011;50720;54.324;18.558;2022-12-10T09:23:20;37.03;;;19.00;;
42912;SDS011;50720;54.324;18.558;2022-12-10T09:25:50;32.72;;;17.45;;
42912;SDS011;50720;54.324;18.558;2022-12-10T09:28:19;36.75;;;18.85;;
42912;SDS011;50720;54.324;18.558;2022-12-10T09:30:54;34.97;;;16.67;;
42912;SDS011;50720;54.324;18.558;2022-12-10T09:33:24;32.33;;;15.00;;
42912;SDS011;50720;54.324;18.558;2022-12-10T09:35:54;30.55;;;16.08;;
42912;SDS011;50720;54.324;18.558;2022-12-10T09:38:25;35.60;;;17.33;;
42912;SDS011;50720;54.324;18.558;2022-12-10T09:40:56;35.25;;;16.55;;
42912;SDS011;50720;54.324;18.558;2022-12-10T09:43:35;39.13;;;18.02;;
42912;SDS011;50720;54.324;18.558;2022-12-10T09:46:17;42.22;;;19.13;;
42912;SDS011;50720;54.324;18.558;2022-12-10T09:48:55;42.00;;;20.92;;
42912;SDS011;50720;54.324;18.558;2022-12-10T09:51:31;34.10;;;18.15;;
42912;SDS011;50720;54.324;18.558;2022-12-10T09:54:10;41.92;;;21.15;;
42912;SDS011;50720;54.324;18.558;2022-12-10T09:56:47;42.53;;;19.73;;
42912;SDS011;50720;54.324;18.558;2022-12-10T09:59:19;33.08;;;17.40;;
42912;SDS011;50720;54.324;18.558;2022-12-10T10:01:57;40.00;;;18.20;;
42912;SDS011;50720;54.324;18.558;2022-12-10T10:04:40;34.88;;;17.70;;
42912;SDS011;50720;54.324;18.558;2022-12-10T10:07:10;40.17;;;18.70;;
42912;SDS011;50720;54.324;18.558;2022-12-10T10:09:49;38.95;;;18.88;;
42912;SDS011;50720;54.324;18.558;2022-12-10T10:12:21;39.20;;;16.65;;
42912;SDS011;50720;54.324;18.558;2022-12-10T10:14:51;39.53;;;19.27;;
42912;SDS011;50720;54.324;18.558;2022-12-10T10:17:21;39.47;;;19.02;;
42912;SDS011;50720;54.324;18.558;2022-12-10T10:19:59;38.75;;;17.88;;
42912;SDS011;50720;54.324;18.558;2022-12-10T10:22:29;38.00;;;18.20;;
42912;SDS011;50720;54.324;18.558;2022-12-10T10:25:00;38.83;;;19.38;;
42912;SDS011;50720;54.324;18.558;2022-12-10T10:27:30;38.25;;;17.40;;
42912;SDS011;50720;54.324;18.558;2022-12-10T10:30:01;35.28;;;18.70;;
42912;SDS011;50720;54.324;18.558;2022-12-10T10:32:44;39.42;;;20.05;;
42912;SDS011;50720;54.324;18.558;2022-12-10T10:35:21;31.58;;;16.27;;
42912;SDS011;50720;54.324;18.558;2022-12-10T10:37:55;29.80;;;15.85;;
42912;SDS011;50720;54.324;18.558;2022-12-10T10:40:30;30.80;;;14.57;;
42912;SDS011;50720;54.324;18.558;2022-12-10T10:43:02;33.50;;;17.20;;
42912;SDS011;50720;54.324;18.558;2022-12-10T10:45:38;31.73;;;16.27;;
42912;SDS011;50720;54.324;18.558;2022-12-10T10:48:12;34.45;;;15.73;;
42912;SDS011;50720;54.324;18.558;2022-12-10T10:50:44;35.38;;;17.60;;
42912;SDS011;50720;54.324;18.558;2022-12-10T10:53:23;32.50;;;15.45;;
42912;SDS011;50720;54.324;18.558;2022-12-10T10:55:58;35.92;;;17.17;;
42912;SDS011;50720;54.324;18.558;2022-12-10T10:58:35;37.53;;;15.88;;
42912;SDS011;50720;54.324;18.558;2022-12-10T11:01:13;31.58;;;15.90;;
42912;SDS011;50720;54.324;18.558;2022-12-10T11:03:45;32.33;;;16.83;;
42912;SDS011;50720;54.324;18.558;2022-12-10T11:06:17;39.60;;;17.45;;
42912;SDS011;50720;54.324;18.558;2022-12-10T11:08:46;34.13;;;16.10;;
42912;SDS011;50720;54.324;18.558;2022-12-10T11:11:19;29.45;;;15.05;;
42912;SDS011;50720;54.324;18.558;2022-12-10T11:13:54;35.67;;;17.40;;
42912;SDS011;50720;54.324;18.558;2022-12-10T11:16:42;32.70;;;16.92;;
42912;SDS011;50720;54.324;18.558;2022-12-10T11:19:17;34.97;;;18.23;;
42912;SDS011;50720;54.324;18.558;2022-12-10T11:21:48;37.15;;;18.00;;
42912;SDS011;50720;54.324;18.558;2022-12-10T11:24:19;36.88;;;19.80;;
42912;SDS011;50720;54.324;18.558;2022-12-10T11:26:52;36.47;;;18.85;;
42912;SDS011;50720;54.324;18.558;2022-12-10T11:29:32;34.53;;;17.77;;
42912;SDS011;50720;54.324;18.558;2022-12-10T11:32:24;42.53;;;20.98;;
42912;SDS011;50720;54.324;18.558;2022-12-10T11:35:10;36.92;;;19.58;;
42912;SDS011;50720;54.324;18.558;2022-12-10T11:37:43;39.92;;;22.55;;
42912;SDS011;50720;54.324;18.558;2022-12-10T11:40:28;42.83;;;21.13;;
42912;SDS011;50720;54.324;18.558;2022-12-10T11:46:06;40.10;;;20.83;;
42912;SDS011;50720;54.324;18.558;2022-12-10T11:48:50;40.97;;;19.77;;
42912;SDS011;50720;54.324;18.558;2022-12-10T11:51:33;44.63;;;23.40;;
42912;SDS011;50720;54.324;18.558;2022-12-10T11:54:12;46.22;;;24.52;;
42912;SDS011;50720;54.324;18.558;2022-12-10T11:56:56;47.92;;;24.23;;
42912;SDS011;50720;54.324;18.558;2022-12-10T11:59:34;49.03;;;22.38;;
42912;SDS011;50720;54.324;18.558;2022-12-10T12:02:39;42.22;;;21.20;;
42912;SDS011;50720;54.324;18.558;2022-12-10T12:05:26;41.88;;;21.52;;
42912;SDS011;50720;54.324;18.558;2022-12-10T12:10:42;44.30;;;20.05;;
42912;SDS011;50720;54.324;18.558;2022-12-10T12:13:39;43.30;;;22.27;;
42912;SDS011;50720;54.324;18.558;2022-12-10T12:16:18;40.38;;;19.38;;
42912;SDS011;50720;54.324;18.558;2022-12-10T12:18:54;38.20;;;20.52;;
42912;SDS011;50720;54.324;18.558;2022-12-10T12:21:28;41.15;;;21.00;;
42912;SDS011;50720;54.324;18.558;2022-12-10T12:23:59;40.63;;;21.52;;
42912;SDS011;50720;54.324;18.558;2022-12-10T12:26:35;39.67;;;20.38;;
42912;SDS011;50720;54.324;18.558;2022-12-10T12:29:11;46.45;;;22.00;;
42912;SDS011;50720;54.324;18.558;2022-12-10T12:31:47;45.80;;;23.35;;
42912;SDS011;50720;54.324;18.558;2022-12-10T12:34:24;48.55;;;25.23;;
42912;SDS011;50720;54.324;18.558;2022-12-10T12:37:03;48.42;;;24.80;;
42912;SDS011;50720;54.324;18.558;2022-12-10T12:39:34;50.65;;;25.25;;
42912;SDS011;50720;54.324;18.558;2022-12-10T12:42:13;47.88;;;24.15;;
42912;SDS011;50720;54.324;18.558;2022-12-10T12:44:56;47.97;;;23.03;;
42912;SDS011;50720;54.324;18.558;2022-12-10T12:47:34;51.03;;;24.98;;
42912;SDS011;50720;54.324;18.558;2022-12-10T12:50:11;53.58;;;27.33;;
42912;SDS011;50720;54.324;18.558;2022-12-10T12:52:53;46.78;;;25.33;;
42912;SDS011;50720;54.324;18.558;2022-12-10T12:55:28;47.40;;;25.45;;
42912;SDS011;50720;54.324;18.558;2022-12-10T12:58:11;51.85;;;24.65;;
42912;SDS011;50720;54.324;18.558;2022-12-10T13:00:49;54.28;;;25.90;;
42912;SDS011;50720;54.324;18.558;2022-12-10T13:03:38;51.25;;;26.63;;
42912;SDS011;50720;54.324;18.558;2022-12-10T13:06:17;54.30;;;27.65;;
42912;SDS011;50720;54.324;18.558;2022-12-10T13:08:52;51.72;;;26.45;;
42912;SDS011;50720;54.324;18.558;2022-12-10T13:11:31;55.05;;;27.33;;
42912;SDS011;50720;54.324;18.558;2022-12-10T13:14:03;56.67;;;28.40;;
42912;SDS011;50720;54.324;18.558;2022-12-10T13:23:00;52.92;;;25.80;;
42912;SDS011;50720;54.324;18.558;2022-12-10T13:25:42;61.72;;;27.42;;
42912;SDS011;50720;54.324;18.558;2022-12-10T13:28:29;54.90;;;26.80;;
42912;SDS011;50720;54.324;18.558;2022-12-10T13:31:21;57.88;;;27.40;;
42912;SDS011;50720;54.324;18.558;2022-12-10T13:34:05;56.88;;;26.48;;
42912;SDS011;50720;54.324;18.558;2022-12-10T13:39:50;54.92;;;26.67;;
42912;SDS011;50720;54.324;18.558;2022-12-10T13:42:27;52.17;;;23.95;;
42912;SDS011;50720;54.324;18.558;2022-12-10T13:45:26;59.90;;;29.10;;
42912;SDS011;50720;54.324;18.558;2022-12-10T13:51:12;49.42;;;23.90;;
42912;SDS011;50720;54.324;18.558;2022-12-10T13:53:56;55.08;;;26.20;;
42912;SDS011;50720;54.324;18.558;2022-12-10T13:56:35;54.20;;;24.33;;
42912;SDS011;50720;54.324;18.558;2022-12-10T13:59:15;49.85;;;23.48;;
42912;SDS011;50720;54.324;18.558;2022-12-10T14:01:55;55.10;;;25.98;;
42912;SDS011;50720;54.324;18.558;2022-12-10T14:07:14;46.80;;;23.92;;
42912;SDS011;50720;54.324;18.558;2022-12-10T14:09:48;49.95;;;24.05;;
42912;SDS011;50720;54.324;18.558;2022-12-10T14:12:22;49.95;;;25.05;;
42912;SDS011;50720;54.324;18.558;2022-12-10T14:14:56;54.22;;;26.25;;
42912;SDS011;50720;54.324;18.558;2022-12-10T14:17:30;49.65;;;25.83;;
42912;SDS011;50720;54.324;18.558;2022-12-10T14:20:03;57.20;;;26.27;;
42912;SDS011;50720;54.324;18.558;2022-12-10T14:22:36;59.08;;;28.45;;
42912;SDS011;50720;54.324;18.558;2022-12-10T14:25:11;65.43;;;29.73;;
42912;SDS011;50720;54.324;18.558;2022-12-10T14:27:45;64.38;;;28.13;;
42912;SDS011;50720;54.324;18.558;2022-12-10T14:30:16;70.13;;;30.40;;
42912;SDS011;50720;54.324;18.558;2022-12-10T14:32:48;62.75;;;29.02;;
42912;SDS011;50720;54.324;18.558;2022-12-10T14:35:20;61.63;;;28.75;;
42912;SDS011;50720;54.324;18.558;2022-12-10T14:37:52;62.58;;;28.67;;
42912;SDS011;50720;54.324;18.558;2022-12-10T14:40:26;69.82;;;30.08;;
42912;SDS011;50720;54.324;18.558;2022-12-10T14:43:02;59.83;;;29.20;;
42912;SDS011;50720;54.324;18.558;2022-12-10T14:45:36;62.33;;;28.80;;
42912;SDS011;50720;54.324;18.558;2022-12-10T14:48:11;58.05;;;27.15;;
42912;SDS011;50720;54.324;18.558;2022-12-10T14:50:43;60.35;;;28.10;;
42912;SDS011;50720;54.324;18.558;2022-12-10T14:53:14;64.57;;;31.85;;
42912;SDS011;50720;54.324;18.558;2022-12-10T14:55:55;69.35;;;29.60;;
42912;SDS011;50720;54.324;18.558;2022-12-10T14:58:29;62.75;;;29.60;;
42912;SDS011;50720;54.324;18.558;2022-12-10T15:01:09;64.73;;;28.63;;
42912;SDS011;50720;54.324;18.558;2022-12-10T15:03:44;64.03;;;30.23;;
42912;SDS011;50720;54.324;18.558;2022-12-10T15:06:16;64.15;;;30.42;;
42912;SDS011;50720;54.324;18.558;2022-12-10T15:08:48;62.20;;;29.25;;
42912;SDS011;50720;54.324;18.558;2022-12-10T15:11:23;60.17;;;30.30;;
42912;SDS011;50720;54.324;18.558;2022-12-10T15:13:56;65.50;;;29.20;;
42912;SDS011;50720;54.324;18.558;2022-12-10T15:16:28;69.15;;;29.63;;
42912;SDS011;50720;54.324;18.558;2022-12-10T15:19:07;59.40;;;27.15;;
42912;SDS011;50720;54.324;18.558;2022-12-10T15:21:41;69.20;;;30.13;;
42912;SDS011;50720;54.324;18.558;2022-12-10T15:24:17;69.05;;;30.75;;